Time;durP1;ratioP1;P1;durP2;ratioP2;P2;SDS_P1;SDS_P2;PMS_P1;PMS_P2;Temp;Humidity;BMP_temperature;BMP_pressure;BME280_temperature;BME280_humidity;BME280_pressure;Samples;Min_cycle;Max_cycle;Signal;HPM_P1;HPM_P2
2023/04/19 00:01:30;;;;;;;7.70;6.27;;;14.10;82.10;;;;;;5002970;28;20200;-61
2023/04/19 00:03:57;;;;;;;9.70;7.13;;;14.10;81.80;;;;;;5036259;28;20688;-61
2023/04/19 00:06:24;;;;;;;9.40;6.83;;;14.10;81.60;;;;;;5007182;28;20200;-61
2023/04/19 00:08:51;;;;;;;9.13;7.03;;;14.10;81.60;;;;;;5003410;28;20200;-61
2023/04/19 00:11:19;;;;;;;8.93;6.77;;;14.00;81.50;;;;;;4999876;28;20219;-61
2023/04/19 00:13:46;;;;;;;7.00;6.17;;;14.00;81.50;;;;;;5007452;28;20203;-61
2023/04/19 00:16:12;;;;;;;7.00;6.17;;;14.00;81.60;;;;;;5009882;28;20209;-61
2023/04/19 00:18:40;;;;;;;9.57;7.10;;;14.00;81.80;;;;;;5005372;28;20290;-61
2023/04/19 00:21:07;;;;;;;11.70;6.77;;;14.00;81.90;;;;;;5009142;28;20498;-61
2023/04/19 00:23:34;;;;;;;9.57;7.00;;;14.00;81.80;;;;;;5003473;28;20271;-61
2023/04/19 00:26:03;;;;;;;8.30;6.43;;;14.00;81.80;;;;;;5007339;28;20577;-61
2023/04/19 00:28:30;;;;;;;6.33;5.67;;;13.90;82.00;;;;;;5005959;28;20207;-61
2023/04/19 00:30:57;;;;;;;6.87;6.17;;;13.90;82.20;;;;;;5005720;28;20259;-61
2023/04/19 00:33:24;;;;;;;7.70;5.90;;;13.90;82.50;;;;;;5006730;28;20211;-61
2023/04/19 00:35:51;;;;;;;7.43;5.73;;;13.90;82.70;;;;;;4999971;28;20215;-61
2023/04/19 00:38:19;;;;;;;10.07;6.10;;;13.80;82.90;;;;;;5041005;28;20213;-61
2023/04/19 00:40:46;;;;;;;6.30;5.47;;;13.80;83.20;;;;;;5004811;28;20250;-61
2023/04/19 00:43:19;;;;;;;6.80;5.37;;;13.80;83.50;;;;;;5003394;28;20219;-61
2023/04/19 00:45:48;;;;;;;10.70;5.67;;;13.80;83.90;;;;;;5005335;28;20243;-61
2023/04/19 00:48:15;;;;;;;6.97;6.10;;;13.80;84.10;;;;;;5009242;28;20202;-61
2023/04/19 00:50:44;;;;;;;7.70;6.27;;;13.70;84.20;;;;;;5009206;28;20238;-61
2023/04/19 00:53:11;;;;;;;6.93;5.50;;;13.70;84.30;;;;;;5007169;28;20591;-61
2023/04/19 00:55:39;;;;;;;9.00;6.20;;;13.70;84.90;;;;;;5005918;28;20207;-62
2023/04/19 00:58:07;;;;;;;7.17;6.33;;;13.70;84.60;;;;;;5009939;28;20219;-61
2023/04/19 01:00:35;;;;;;;9.53;6.40;;;13.60;84.70;;;;;;5011437;28;20590;-61
2023/04/19 01:03:03;;;;;;;10.13;7.07;;;13.60;84.80;;;;;;5023574;28;20255;-61
2023/04/19 01:05:30;;;;;;;10.33;6.43;;;13.50;85.10;;;;;;5003493;28;20198;-61
2023/04/19 01:07:57;;;;;;;7.63;6.30;;;13.50;85.10;;;;;;5004874;28;20211;-61
2023/04/19 01:10:24;;;;;;;10.67;6.80;;;13.50;85.10;;;;;;5003043;28;20289;-61
2023/04/19 01:12:51;;;;;;;8.53;6.37;;;13.40;85.00;;;;;;5012163;28;20204;-61
2023/04/19 01:15:18;;;;;;;8.87;6.70;;;13.40;85.00;;;;;;5001670;28;20209;-61
2023/04/19 01:17:48;;;;;;;8.23;5.30;;;13.40;85.10;;;;;;5007269;28;20211;-61
2023/04/19 01:20:15;;;;;;;7.27;6.30;;;13.30;85.20;;;;;;5023863;28;20423;-61
2023/04/19 01:22:42;;;;;;;10.00;6.80;;;13.30;85.20;;;;;;5004860;28;20202;-61
2023/04/19 01:25:10;;;;;;;7.13;6.00;;;13.20;85.30;;;;;;5005800;28;20195;-61
2023/04/19 01:27:37;;;;;;;7.43;6.00;;;13.20;85.60;;;;;;5004845;28;20290;-62
2023/04/19 01:30:04;;;;;;;9.13;7.23;;;13.20;85.70;;;;;;5017965;28;20636;-61
2023/04/19 01:32:31;;;;;;;9.00;7.07;;;13.10;85.70;;;;;;5009673;28;20578;-61
2023/04/19 01:34:58;;;;;;;10.67;7.10;;;13.00;85.80;;;;;;5008396;28;20667;-61
2023/04/19 01:37:25;;;;;;;9.47;7.63;;;13.00;86.00;;;;;;5011276;28;20194;-61
2023/04/19 01:39:52;;;;;;;7.67;6.70;;;12.90;86.30;;;;;;5008973;28;20225;-61
2023/04/19 01:42:19;;;;;;;9.47;7.13;;;12.90;86.30;;;;;;5021996;28;20200;-61
2023/04/19 01:44:46;;;;;;;10.27;7.53;;;12.90;86.40;;;;;;5004940;28;20258;-61
2023/04/19 01:47:13;;;;;;;10.47;7.40;;;12.90;86.50;;;;;;5009061;28;20232;-61
2023/04/19 01:49:40;;;;;;;8.63;7.13;;;12.90;86.60;;;;;;5004109;28;20207;-61
2023/04/19 01:52:07;;;;;;;9.30;7.23;;;12.90;86.60;;;;;;5005972;28;20295;-62
2023/04/19 01:54:34;;;;;;;8.67;6.63;;;12.90;86.60;;;;;;5003761;28;20210;-62
2023/04/19 01:57:01;;;;;;;8.83;7.30;;;12.90;86.50;;;;;;5013550;28;20226;-62
2023/04/19 01:59:29;;;;;;;11.03;7.37;;;12.80;86.50;;;;;;5027000;28;20274;-61
2023/04/19 02:01:55;;;;;;;9.67;7.20;;;12.80;86.60;;;;;;5006889;28;20231;-61
2023/04/19 02:04:23;;;;;;;8.97;7.03;;;12.80;86.70;;;;;;5012612;28;20280;-61
2023/04/19 02:06:50;;;;;;;6.90;6.20;;;12.80;86.70;;;;;;5013569;28;20209;-61
2023/04/19 02:09:17;;;;;;;8.43;6.63;;;12.80;86.80;;;;;;5003655;28;20202;-61
2023/04/19 02:11:45;;;;;;;7.13;5.97;;;12.80;86.80;;;;;;5008941;28;20196;-62
2023/04/19 02:14:12;;;;;;;8.30;5.93;;;12.80;86.70;;;;;;5005809;28;20200;-61
2023/04/19 02:16:40;;;;;;;9.27;6.37;;;12.80;86.70;;;;;;5011668;28;20214;-61
2023/04/19 02:19:08;;;;;;;8.90;6.80;;;12.80;86.70;;;;;;5009995;28;20522;-61
2023/04/19 02:21:34;;;;;;;6.27;5.20;;;12.70;86.80;;;;;;5006937;28;20305;-61
2023/04/19 02:24:01;;;;;;;7.40;6.37;;;12.70;86.70;;;;;;5008359;28;20206;-61
2023/04/19 02:26:28;;;;;;;6.43;5.63;;;12.70;87.40;;;;;;5022587;28;20231;-62
2023/04/19 02:28:55;;;;;;;9.97;6.87;;;12.70;86.80;;;;;;5008493;28;20207;-61
2023/04/19 02:31:22;;;;;;;8.83;6.53;;;12.70;86.80;;;;;;5000769;28;20600;-61
2023/04/19 02:33:49;;;;;;;8.77;5.70;;;12.60;86.90;;;;;;5009424;28;20225;-61
2023/04/19 02:36:16;;;;;;;9.50;6.63;;;12.60;87.10;;;;;;5002748;28;20291;-61
2023/04/19 02:38:43;;;;;;;8.50;5.70;;;12.60;87.20;;;;;;5011964;28;20208;-61
2023/04/19 02:41:11;;;;;;;7.80;5.50;;;12.60;87.20;;;;;;5014171;28;20241;-61
2023/04/19 02:43:39;;;;;;;6.40;5.77;;;12.60;87.40;;;;;;5039745;28;20208;-61
2023/04/19 02:46:06;;;;;;;8.30;6.30;;;12.60;87.50;;;;;;5005485;28;20557;-62
2023/04/19 02:48:33;;;;;;;12.43;6.60;;;12.50;87.70;;;;;;4996172;28;20229;-61
2023/04/19 02:51:00;;;;;;;9.63;5.73;;;12.60;87.90;;;;;;5002040;28;20214;-63
2023/04/19 02:53:27;;;;;;;7.83;6.33;;;12.60;87.90;;;;;;5009980;28;20227;-61
2023/04/19 02:55:55;;;;;;;7.43;5.63;;;12.50;87.80;;;;;;5038442;28;20207;-61
2023/04/19 02:58:22;;;;;;;8.50;6.33;;;12.50;88.00;;;;;;5014445;28;20200;-61
2023/04/19 03:01:00;;;;;;;8.43;6.50;;;12.50;88.00;;;;;;5013194;28;20306;-61
2023/04/19 03:03:27;;;;;;;11.63;6.43;;;12.50;88.00;;;;;;5001417;28;20212;-61
2023/04/19 03:05:54;;;;;;;7.97;6.23;;;12.50;88.00;;;;;;5039677;28;20188;-61
2023/04/19 03:08:21;;;;;;;7.83;6.73;;;12.40;87.90;;;;;;5015528;28;20210;-61
2023/04/19 03:10:48;;;;;;;8.33;6.83;;;12.40;87.80;;;;;;5003466;28;20971;-61
2023/04/19 03:13:15;;;;;;;7.60;6.80;;;12.40;87.80;;;;;;5013944;28;20208;-61
2023/04/19 03:15:42;;;;;;;7.57;6.10;;;12.40;87.80;;;;;;5043222;28;20211;-61
2023/04/19 03:18:10;;;;;;;6.97;5.97;;;12.40;87.90;;;;;;5042552;28;20240;-61
2023/04/19 03:20:40;;;;;;;8.10;6.37;;;12.40;88.00;;;;;;5040005;28;20331;-61
2023/04/19 03:23:07;;;;;;;8.43;6.17;;;12.30;87.90;;;;;;5006936;28;20198;-61
2023/04/19 03:25:34;;;;;;;7.83;6.70;;;12.40;88.00;;;;;;5012115;28;20263;-61
2023/04/19 03:28:15;;;;;;;8.10;6.60;;;12.40;87.90;;;;;;5013457;28;20207;-61
2023/04/19 03:31:05;;;;;;;9.53;7.40;;;12.30;87.80;;;;;;5009326;28;20216;-62
2023/04/19 03:33:32;;;;;;;8.70;6.37;;;12.40;87.80;;;;;;5006480;28;20208;-61
2023/04/19 03:35:59;;;;;;;7.80;6.27;;;12.30;87.80;;;;;;5036383;28;20210;-62
2023/04/19 03:38:26;;;;;;;8.30;6.50;;;12.30;87.80;;;;;;5039927;28;20663;-61
2023/04/19 03:40:54;;;;;;;7.77;6.43;;;12.30;87.70;;;;;;5009366;28;20672;-62
2023/04/19 03:43:23;;;;;;;7.70;6.63;;;12.40;87.80;;;;;;5019745;28;20293;-61
2023/04/19 03:45:50;;;;;;;8.63;6.57;;;12.40;87.90;;;;;;5000339;28;20267;-62
2023/04/19 03:48:17;;;;;;;11.10;7.77;;;12.40;87.90;;;;;;5036611;28;20833;-61
2023/04/19 03:50:44;;;;;;;9.33;7.50;;;12.40;87.90;;;;;;5007794;28;20718;-61
2023/04/19 03:53:15;;;;;;;8.73;6.73;;;12.40;87.90;;;;;;4998742;28;20210;-61
2023/04/19 03:55:42;;;;;;;7.73;6.80;;;12.40;87.80;;;;;;5006260;28;20582;-62
2023/04/19 03:58:09;;;;;;;8.87;7.67;;;12.40;88.00;;;;;;5017943;28;20215;-61
2023/04/19 04:00:48;;;;;;;11.70;10.03;;;12.50;88.10;;;;;;5007786;28;20251;-61
2023/04/19 04:03:15;;;;;;;12.80;9.70;;;12.50;88.10;;;;;;5016864;28;20627;-61
2023/04/19 04:05:43;;;;;;;11.70;8.97;;;12.50;88.10;;;;;;5007242;28;20766;-61
2023/04/19 04:08:10;;;;;;;11.30;9.67;;;12.50;88.10;;;;;;5009532;28;20636;-61
2023/04/19 04:10:37;;;;;;;11.27;9.33;;;12.50;88.20;;;;;;5007450;28;20234;-61
2023/04/19 04:13:05;;;;;;;12.70;8.63;;;12.50;88.20;;;;;;5019495;28;20236;-61
2023/04/19 04:15:45;;;;;;;9.70;8.60;;;12.50;88.30;;;;;;5010837;28;20218;-61
2023/04/19 04:18:13;;;;;;;11.67;9.37;;;12.50;88.30;;;;;;5036598;28;20208;-61
2023/04/19 04:20:42;;;;;;;15.03;11.30;;;12.50;88.40;;;;;;5011450;28;20274;-61
2023/04/19 04:23:10;;;;;;;14.60;10.23;;;12.50;88.40;;;;;;5010193;28;20225;-61
2023/04/19 04:25:42;;;;;;;13.03;10.50;;;12.50;88.30;;;;;;5009767;28;20621;-61
2023/04/19 04:28:12;;;;;;;14.27;10.20;;;12.50;88.20;;;;;;5010601;28;20200;-61
2023/04/19 04:30:40;;;;;;;12.33;11.03;;;12.50;88.20;;;;;;5002366;28;20637;-61
2023/04/19 04:33:10;;;;;;;16.53;13.43;;;12.40;88.20;;;;;;5010675;28;20210;-62
2023/04/19 04:35:40;;;;;;;18.20;14.60;;;12.40;88.40;;;;;;5008636;28;20223;-61
2023/04/19 04:38:13;;;;;;;17.87;15.13;;;12.40;88.40;;;;;;5023518;28;20207;-61
2023/04/19 04:40:54;;;;;;;19.17;12.83;;;12.40;88.40;;;;;;5014710;28;20228;-61
2023/04/19 04:43:24;;;;;;;17.40;15.37;;;12.40;88.40;;;;;;5036147;28;20214;-61
2023/04/19 04:45:54;;;;;;;19.20;15.80;;;12.40;88.20;;;;;;5037676;28;20235;-61
2023/04/19 04:48:22;;;;;;;19.70;16.63;;;12.30;87.90;;;;;;5044371;28;20207;-61
2023/04/19 04:50:49;;;;;;;20.80;17.77;;;12.30;88.00;;;;;;5003077;28;20204;-61
2023/04/19 04:53:17;;;;;;;24.00;19.20;;;12.30;88.00;;;;;;5012667;28;20238;-61
2023/04/19 04:55:45;;;;;;;23.33;18.73;;;12.30;88.10;;;;;;5011670;28;20227;-61
2023/04/19 04:58:13;;;;;;;24.00;18.97;;;12.30;88.20;;;;;;5012639;28;20208;-62
2023/04/19 05:00:53;;;;;;;20.37;18.17;;;12.30;88.20;;;;;;5004274;28;20238;-61
2023/04/19 05:03:21;;;;;;;21.50;18.07;;;12.30;88.20;;;;;;5034004;28;20204;-61
2023/04/19 05:05:53;;;;;;;21.07;16.87;;;12.30;88.30;;;;;;5003945;28;20217;-61
2023/04/19 05:08:24;;;;;;;17.60;13.43;;;12.30;88.30;;;;;;5038567;28;20219;-62
2023/04/19 05:10:51;;;;;;;20.57;11.43;;;12.30;88.40;;;;;;5000742;28;20311;-61
2023/04/19 05:13:21;;;;;;;16.13;9.10;;;12.40;88.60;;;;;;5011039;28;20708;-61
2023/04/19 05:15:49;;;;;;;11.47;8.80;;;12.30;88.70;;;;;;5003120;28;20211;-61
2023/04/19 05:18:16;;;;;;;15.47;8.87;;;12.40;88.80;;;;;;5032952;28;20203;-61
2023/04/19 05:20:45;;;;;;;11.07;7.93;;;12.40;88.80;;;;;;5011977;28;20326;-61
2023/04/19 05:23:20;;;;;;;13.20;7.97;;;12.50;88.90;;;;;;5007461;28;20222;-61
2023/04/19 05:25:49;;;;;;;12.00;7.43;;;12.60;88.90;;;;;;5002412;28;20342;-61
2023/04/19 05:28:16;;;;;;;10.97;7.63;;;12.70;88.80;;;;;;5034624;28;20226;-61
2023/04/19 05:31:03;;;;;;;9.73;7.87;;;12.70;88.60;;;;;;5017518;28;20230;-61
2023/04/19 05:33:38;;;;;;;14.00;8.27;;;12.90;88.50;;;;;;5010441;28;20222;-61
2023/04/19 05:36:05;;;;;;;13.20;8.37;;;13.00;88.30;;;;;;5011442;28;20209;-61
2023/04/19 05:38:33;;;;;;;10.43;8.13;;;13.10;88.10;;;;;;5005801;28;20203;-61
2023/04/19 05:41:02;;;;;;;11.27;9.27;;;13.30;87.80;;;;;;5009707;28;20673;-61
2023/04/19 05:43:29;;;;;;;12.60;8.40;;;13.40;87.30;;;;;;5006667;28;20526;-61
2023/04/19 05:45:57;;;;;;;13.23;8.90;;;13.50;86.80;;;;;;5007629;28;20278;-62
2023/04/19 05:48:24;;;;;;;13.17;8.53;;;13.70;86.50;;;;;;5009414;28;20517;-61
2023/04/19 05:51:07;;;;;;;15.17;8.23;;;13.90;86.20;;;;;;5006367;28;20218;-61
2023/04/19 05:53:53;;;;;;;16.80;10.53;;;14.10;85.90;;;;;;4997899;28;20311;-61
2023/04/19 05:56:24;;;;;;;12.70;9.37;;;14.30;85.80;;;;;;5017743;28;20208;-61
2023/04/19 05:58:54;;;;;;;12.83;9.90;;;14.50;85.70;;;;;;4999458;28;20226;-61
2023/04/19 06:01:22;;;;;;;12.23;9.43;;;14.60;85.50;;;;;;5005998;28;20220;-61
2023/04/19 06:03:51;;;;;;;17.73;9.97;;;14.70;85.10;;;;;;5005912;28;20204;-61
2023/04/19 06:06:21;;;;;;;14.43;9.93;;;14.80;84.90;;;;;;5011709;28;20294;-61
2023/04/19 06:08:49;;;;;;;13.47;10.00;;;15.00;84.70;;;;;;5003148;28;20214;-61
2023/04/19 06:11:20;;;;;;;13.43;9.60;;;15.10;84.70;;;;;;5003093;28;20253;-61
2023/04/19 06:13:57;;;;;;;20.17;11.07;;;15.20;84.30;;;;;;4997754;28;20200;-62
2023/04/19 06:16:25;;;;;;;13.43;10.20;;;15.30;84.20;;;;;;5003448;28;20595;-62
2023/04/19 06:18:52;;;;;;;15.17;10.80;;;15.30;84.00;;;;;;5033780;28;20214;-61
2023/04/19 06:21:19;;;;;;;14.60;10.73;;;15.30;84.10;;;;;;5001903;28;20250;-61
2023/04/19 06:23:46;;;;;;;12.07;10.63;;;15.30;84.10;;;;;;5002162;28;20215;-61
2023/04/19 06:26:13;;;;;;;14.30;10.90;;;15.30;84.20;;;;;;4995969;28;20196;-61
2023/04/19 06:28:40;;;;;;;15.20;11.37;;;15.30;84.20;;;;;;5003335;28;20648;-61
2023/04/19 06:31:07;;;;;;;17.30;12.40;;;15.30;84.40;;;;;;5006366;28;20688;-61
2023/04/19 06:33:35;;;;;;;15.70;12.37;;;15.30;84.80;;;;;;5006544;28;20213;-61
2023/04/19 06:36:02;;;;;;;18.10;12.23;;;15.30;85.10;;;;;;5007494;28;20204;-62
2023/04/19 06:38:29;;;;;;;13.17;11.47;;;15.30;85.30;;;;;;5008607;28;20212;-61
2023/04/19 06:40:56;;;;;;;17.33;13.00;;;15.30;85.30;;;;;;5006381;28;20220;-61
2023/04/19 06:43:23;;;;;;;14.40;11.40;;;15.40;85.60;;;;;;5008376;28;20187;-62
2023/04/19 06:45:57;;;;;;;16.20;12.47;;;15.40;85.60;;;;;;5008217;28;20248;-61
2023/04/19 06:48:25;;;;;;;13.70;12.23;;;15.40;85.80;;;;;;5004766;28;20210;-61
2023/04/19 06:50:52;;;;;;;13.50;12.07;;;15.40;86.00;;;;;;5009811;28;20307;-61
2023/04/19 06:53:19;;;;;;;16.20;12.33;;;15.40;86.00;;;;;;5005057;28;20220;-61
2023/04/19 06:55:46;;;;;;;16.83;11.93;;;15.50;85.70;;;;;;5004215;28;20210;-62
2023/04/19 06:58:13;;;;;;;15.10;12.37;;;15.50;85.60;;;;;;4998321;28;20205;-61
2023/04/19 07:00:40;;;;;;;15.03;11.63;;;15.50;85.60;;;;;;5007705;28;20280;-61
2023/04/19 07:03:07;;;;;;;16.87;12.00;;;15.60;85.60;;;;;;5005370;28;20250;-61
2023/04/19 07:05:35;;;;;;;19.17;11.93;;;15.60;85.50;;;;;;5004535;28;20289;-61
2023/04/19 07:08:02;;;;;;;18.70;12.37;;;15.60;85.20;;;;;;5003842;28;20209;-61
2023/04/19 07:10:29;;;;;;;19.27;12.53;;;15.70;85.10;;;;;;5008833;28;20311;-62
2023/04/19 07:12:56;;;;;;;14.77;12.87;;;15.60;84.90;;;;;;5010059;28;20262;-61
2023/04/19 07:15:23;;;;;;;23.03;13.17;;;15.70;84.80;;;;;;5006244;28;20279;-61
2023/04/19 07:17:50;;;;;;;16.43;11.73;;;15.80;84.10;;;;;;5011487;28;20204;-62
2023/04/19 07:20:17;;;;;;;15.07;12.53;;;15.80;84.00;;;;;;5009302;28;20218;-61
2023/04/19 07:22:44;;;;;;;15.77;12.17;;;15.80;83.90;;;;;;5003942;28;20670;-61
2023/04/19 07:25:11;;;;;;;13.47;11.50;;;16.00;83.60;;;;;;5004207;28;20277;-61
2023/04/19 07:27:38;;;;;;;16.10;13.03;;;16.00;82.90;;;;;;5005775;28;20204;-61
2023/04/19 07:30:06;;;;;;;17.27;14.07;;;16.20;83.00;;;;;;5003266;28;20192;-62
2023/04/19 07:32:33;;;;;;;16.83;12.20;;;16.40;82.80;;;;;;5001999;28;20236;-61
2023/04/19 07:35:00;;;;;;;16.47;12.53;;;16.60;82.40;;;;;;5005848;28;20705;-62
2023/04/19 07:37:27;;;;;;;15.80;12.53;;;16.80;81.80;;;;;;5004091;28;20200;-62
2023/04/19 07:39:54;;;;;;;14.90;12.30;;;17.00;81.00;;;;;;5004743;28;20210;-61
2023/04/19 07:42:23;;;;;;;14.03;10.80;;;17.20;80.40;;;;;;5002820;28;20355;-61
2023/04/19 07:44:50;;;;;;;13.07;10.33;;;17.50;79.20;;;;;;5011587;28;20292;-62
2023/04/19 07:47:17;;;;;;;13.40;10.10;;;17.70;78.50;;;;;;5010596;28;20193;-61
2023/04/19 07:49:44;;;;;;;9.80;8.80;;;17.90;77.50;;;;;;5008616;28;20296;-61
2023/04/19 07:52:11;;;;;;;10.10;8.00;;;17.90;76.60;;;;;;5006121;28;20565;-61
2023/04/19 07:54:38;;;;;;;10.67;8.33;;;17.90;76.20;;;;;;5010125;28;20285;-61
2023/04/19 07:57:05;;;;;;;15.43;9.87;;;17.90;75.60;;;;;;5007495;28;20548;-62
2023/04/19 07:59:33;;;;;;;12.20;9.17;;;18.00;76.10;;;;;;5006982;28;20285;-61
2023/04/19 08:02:00;;;;;;;9.93;8.60;;;18.10;76.10;;;;;;5004868;28;20598;-61
2023/04/19 08:04:27;;;;;;;9.67;8.63;;;18.40;75.60;;;;;;5002703;28;20209;-61
2023/04/19 08:06:55;;;;;;;9.03;8.13;;;18.70;74.60;;;;;;4998044;28;20210;-61
2023/04/19 08:09:22;;;;;;;9.17;8.17;;;18.90;73.80;;;;;;4998277;28;20256;-61
2023/04/19 08:11:49;;;;;;;9.03;7.07;;;19.20;72.10;;;;;;5010666;28;20211;-61
2023/04/19 08:14:16;;;;;;;11.03;6.90;;;19.40;71.80;;;;;;5000762;28;20291;-61
2023/04/19 08:17:03;;;;;;;8.63;7.63;;;19.60;71.60;;;;;;5006584;28;20207;-61
2023/04/19 08:19:50;;;;;;;8.80;6.10;;;19.90;70.90;;;;;;5007453;28;20611;-61
2023/04/19 08:22:18;;;;;;;8.00;5.40;;;20.10;69.90;;;;;;5005155;28;20557;-61
2023/04/19 08:24:45;;;;;;;6.40;5.03;;;20.30;69.60;;;;;;5005380;28;20196;-61
2023/04/19 08:27:12;;;;;;;5.47;4.67;;;20.50;67.90;;;;;;5006640;28;20226;-61
2023/04/19 08:29:39;;;;;;;4.30;3.63;;;20.50;67.30;;;;;;5001811;28;20203;-61
2023/04/19 08:32:06;;;;;;;6.23;4.10;;;20.60;66.50;;;;;;5004865;28;20568;-61
2023/04/19 08:34:35;;;;;;;4.53;4.13;;;20.70;65.60;;;;;;5002177;28;20204;-61
2023/04/19 08:37:03;;;;;;;5.60;3.30;;;20.90;65.20;;;;;;5006492;28;20211;-61
2023/04/19 08:39:31;;;;;;;4.97;3.37;;;21.00;62.80;;;;;;5005786;28;20291;-61
2023/04/19 08:42:08;;;;;;;4.20;3.50;;;21.00;62.10;;;;;;5004754;28;20222;-61
2023/04/19 08:44:59;;;;;;;6.40;4.70;;;21.10;63.00;;;;;;5004332;28;20239;-61
2023/04/19 08:47:35;;;;;;;6.93;4.27;;;21.20;63.10;;;;;;5006113;28;20199;-61
2023/04/19 08:50:15;;;;;;;9.67;3.97;;;21.40;64.00;;;;;;5006464;28;20200;-62
2023/04/19 08:52:59;;;;;;;6.30;4.27;;;21.60;63.70;;;;;;5005038;28;20200;-61
2023/04/19 08:55:45;;;;;;;4.43;3.83;;;21.80;62.60;;;;;;5008107;28;20200;-61
2023/04/19 08:58:32;;;;;;;3.60;3.30;;;22.00;61.00;;;;;;5005275;28;20271;-61
2023/04/19 09:01:06;;;;;;;4.00;3.40;;;22.00;60.30;;;;;;5010042;28;20210;-61
2023/04/19 09:03:43;;;;;;;3.97;3.57;;;22.00;61.00;;;;;;4999049;28;20207;-61
2023/04/19 09:06:26;;;;;;;3.63;3.27;;;22.10;60.00;;;;;;5000435;28;20207;-61
2023/04/19 09:09:15;;;;;;;6.37;3.17;;;22.20;59.60;;;;;;5000998;28;20204;-62
2023/04/19 09:12:02;;;;;;;3.03;2.73;;;22.20;60.10;;;;;;5001142;28;20290;-61
2023/04/19 09:14:29;;;;;;;3.93;2.83;;;22.30;56.50;;;;;;5005804;28;20603;-61
2023/04/19 09:17:15;;;;;;;2.77;2.57;;;22.20;56.40;;;;;;5003262;28;20210;-62
2023/04/19 09:19:47;;;;;;;3.97;3.23;;;22.10;56.20;;;;;;5004149;28;20270;-61
2023/04/19 09:22:14;;;;;;;2.20;2.00;;;22.10;56.20;;;;;;5005672;28;20303;-61
2023/04/19 09:24:41;;;;;;;5.00;2.07;;;22.10;55.00;;;;;;5004906;28;20259;-61
2023/04/19 09:27:11;;;;;;;2.60;2.03;;;22.00;56.10;;;;;;5002378;28;20197;-62
2023/04/19 09:29:38;;;;;;;1.70;1.60;;;22.00;56.50;;;;;;5005842;28;20637;-61
2023/04/19 09:32:06;;;;;;;2.90;2.70;;;22.10;56.20;;;;;;5003064;28;20606;-61
2023/04/19 09:34:32;;;;;;;3.60;3.30;;;22.30;55.10;;;;;;5034391;28;20238;-61
2023/04/19 09:37:12;;;;;;;3.00;2.70;;;22.30;55.30;;;;;;5006021;28;20204;-61
2023/04/19 09:39:58;;;;;;;3.20;2.13;;;22.30;57.30;;;;;;5005571;28;20541;-61
2023/04/19 09:42:46;;;;;;;2.63;2.27;;;22.40;56.00;;;;;;5002121;28;20224;-62
2023/04/19 09:45:16;;;;;;;2.80;2.60;;;22.50;56.90;;;;;;5000238;28;20224;-62
2023/04/19 09:48:00;;;;;;;2.57;2.37;;;22.60;57.00;;;;;;5008278;28;20327;-61
2023/04/19 09:50:28;;;;;;;2.47;2.10;;;22.80;54.40;;;;;;4998629;28;20626;-61
2023/04/19 09:52:58;;;;;;;3.43;2.73;;;22.90;54.60;;;;;;5002451;28;20646;-61
2023/04/19 09:55:26;;;;;;;3.60;2.90;;;22.90;55.40;;;;;;4998334;28;20255;-62
2023/04/19 09:57:56;;;;;;;4.53;2.57;;;23.00;53.90;;;;;;5004477;28;20202;-62
2023/04/19 10:00:23;;;;;;;6.03;2.97;;;23.00;54.60;;;;;;5007409;28;20620;-62
2023/04/19 10:02:56;;;;;;;3.00;2.70;;;23.10;53.60;;;;;;5005735;28;20224;-62
2023/04/19 10:05:24;;;;;;;2.93;2.33;;;23.20;54.30;;;;;;5003131;28;20659;-62
2023/04/19 10:07:54;;;;;;;3.20;2.90;;;23.20;54.60;;;;;;5008061;28;20304;-62
2023/04/19 10:10:27;;;;;;;2.73;2.53;;;23.20;54.10;;;;;;5037729;28;20461;-62
2023/04/19 10:13:12;;;;;;;2.80;2.60;;;23.30;54.60;;;;;;5003883;28;20235;-61
2023/04/19 10:15:44;;;;;;;2.97;2.30;;;23.50;55.00;;;;;;5008922;28;20197;-62
2023/04/19 10:18:21;;;;;;;2.80;2.60;;;23.70;54.30;;;;;;5009944;28;20219;-62
2023/04/19 10:20:57;;;;;;;4.47;3.40;;;23.80;53.60;;;;;;5005719;28;20208;-62
2023/04/19 10:23:24;;;;;;;1.97;1.47;;;23.90;51.70;;;;;;5003625;28;20613;-61
2023/04/19 10:25:56;;;;;;;1.87;1.77;;;23.90;52.50;;;;;;5038616;28;20220;-62
2023/04/19 10:28:24;;;;;;;2.77;2.00;;;23.90;52.40;;;;;;5005936;28;20262;-62
2023/04/19 10:30:59;;;;;;;2.23;1.90;;;23.90;51.90;;;;;;5005064;28;20646;-61
2023/04/19 10:33:34;;;;;;;1.93;1.43;;;24.00;52.20;;;;;;5005929;28;20203;-61
2023/04/19 10:36:01;;;;;;;3.93;2.53;;;24.10;52.30;;;;;;5009474;28;20216;-61
2023/04/19 10:38:47;;;;;;;3.80;2.27;;;24.20;52.60;;;;;;5012882;28;20204;-62
2023/04/19 10:41:16;;;;;;;4.37;1.70;;;24.20;51.00;;;;;;5010951;28;20236;-62
2023/04/19 10:44:07;;;;;;;1.70;1.60;;;24.30;50.80;;;;;;5003363;28;20625;-62
2023/04/19 10:46:35;;;;;;;1.37;1.27;;;24.30;49.60;;;;;;5004706;28;20236;-62
2023/04/19 10:49:04;;;;;;;1.73;1.50;;;24.20;48.30;;;;;;5010229;28;20208;-61
2023/04/19 10:51:37;;;;;;;2.50;2.10;;;24.20;50.20;;;;;;5009616;28;20263;-61
2023/04/19 10:54:06;;;;;;;2.30;2.10;;;24.20;51.30;;;;;;5005573;28;20223;-61
2023/04/19 10:56:33;;;;;;;1.73;1.50;;;24.40;50.40;;;;;;5006268;28;20287;-61
2023/04/19 11:01:45;;;;;;;2.35;1.80;;;24.60;49.60;;;;;;5007701;28;20253;-62
2023/04/19 11:04:20;;;;;;;2.00;1.80;;;24.60;48.40;;;;;;5002793;28;20682;-61
2023/04/19 11:06:53;;;;;;;1.90;1.80;;;24.60;49.30;;;;;;5004892;28;20262;-62
2023/04/19 11:09:38;;;;;;;2.03;1.83;;;24.70;49.60;;;;;;5008314;28;20219;-61
2023/04/19 11:12:09;;;;;;;2.43;2.10;;;24.80;49.80;;;;;;5002875;28;20623;-61
2023/04/19 11:14:50;;;;;;;2.50;1.60;;;24.90;49.60;;;;;;5004319;28;20203;-61
2023/04/19 11:17:37;;;;;;;2.33;2.13;;;25.00;49.40;;;;;;5007619;28;20617;-62
2023/04/19 11:20:07;;;;;;;2.13;1.93;;;25.10;48.80;;;;;;5008743;28;20668;-62
2023/04/19 11:22:39;;;;;;;2.10;1.77;;;25.20;48.50;;;;;;5004863;28;20210;-62
2023/04/19 11:25:15;;;;;;;2.80;2.20;;;25.20;48.50;;;;;;5007871;28;20202;-62
2023/04/19 11:27:47;;;;;;;2.57;2.27;;;25.20;47.00;;;;;;5006564;28;20215;-62
2023/04/19 11:30:18;;;;;;;1.90;1.80;;;25.20;45.50;;;;;;5004969;28;20197;-62
2023/04/19 11:32:47;;;;;;;2.70;2.03;;;25.00;45.80;;;;;;5005040;28;20297;-61
2023/04/19 11:35:17;;;;;;;2.20;2.00;;;25.00;46.70;;;;;;5003091;28;20206;-61
2023/04/19 11:37:45;;;;;;;1.90;1.70;;;25.00;47.00;;;;;;5007418;28;20207;-61
2023/04/19 11:40:17;;;;;;;2.00;1.80;;;25.10;46.60;;;;;;5005259;28;20207;-61
2023/04/19 11:42:45;;;;;;;2.60;2.27;;;25.20;46.90;;;;;;5003842;28;20218;-62
2023/04/19 11:45:28;;;;;;;3.10;1.77;;;25.20;47.20;;;;;;5008085;28;20255;-61
2023/04/19 11:47:59;;;;;;;2.13;1.87;;;25.30;45.70;;;;;;5004610;28;20197;-61
2023/04/19 11:50:37;;;;;;;2.70;2.00;;;25.30;46.20;;;;;;5001482;28;20211;-61
2023/04/19 11:53:22;;;;;;;2.17;1.77;;;25.30;46.40;;;;;;5006455;28;20208;-61
2023/04/19 11:56:09;;;;;;;3.63;2.40;;;25.30;45.40;;;;;;5005404;28;20215;-62
2023/04/19 11:58:38;;;;;;;1.93;1.83;;;25.30;45.40;;;;;;5000529;28;20255;-61
2023/04/19 12:01:08;;;;;;;5.00;1.83;;;25.30;45.50;;;;;;5004508;28;20211;-62
2023/04/19 12:03:49;;;;;;;1.83;1.63;;;25.30;45.70;;;;;;4999706;28;20231;-62
2023/04/19 12:06:22;;;;;;;3.43;2.10;;;25.40;46.10;;;;;;5004753;28;20200;-62
2023/04/19 12:08:51;;;;;;;2.53;2.33;;;25.40;46.00;;;;;;5000537;28;20203;-62
2023/04/19 12:11:40;;;;;;;2.23;2.03;;;25.50;45.90;;;;;;5003549;28;20629;-61
2023/04/19 12:14:11;;;;;;;2.30;1.90;;;25.50;44.50;;;;;;4998745;28;20641;-62
2023/04/19 12:16:39;;;;;;;3.27;1.57;;;25.40;45.20;;;;;;5007311;28;20212;-62
2023/04/19 12:19:17;;;;;;;2.00;1.90;;;25.30;44.60;;;;;;5007574;28;20200;-61
2023/04/19 12:21:45;;;;;;;2.20;2.00;;;25.00;45.00;;;;;;5001777;28;20212;-61
2023/04/19 12:24:16;;;;;;;2.30;1.73;;;25.00;45.50;;;;;;5006544;28;20200;-62
2023/04/19 12:26:55;;;;;;;1.73;1.63;;;24.90;46.60;;;;;;5007078;28;20503;-61
2023/04/19 12:29:22;;;;;;;3.27;2.43;;;24.90;45.40;;;;;;5007449;28;20287;-61
2023/04/19 12:31:49;;;;;;;4.50;1.93;;;24.90;43.90;;;;;;5004386;28;20205;-61
2023/04/19 12:34:16;;;;;;;2.67;2.07;;;24.80;45.10;;;;;;5004509;28;20238;-61
2023/04/19 12:36:43;;;;;;;1.93;1.80;;;24.80;45.90;;;;;;5004202;28;20210;-61
2023/04/19 12:39:10;;;;;;;2.00;1.90;;;24.90;46.30;;;;;;5002996;28;20200;-61
2023/04/19 12:41:37;;;;;;;2.53;1.87;;;25.00;46.00;;;;;;5001512;28;20227;-62
2023/04/19 12:44:04;;;;;;;3.30;2.40;;;25.00;45.90;;;;;;5006761;28;20221;-61
2023/04/19 12:46:31;;;;;;;2.27;2.13;;;25.10;46.50;;;;;;5011497;28;20579;-62
2023/04/19 12:48:58;;;;;;;4.83;2.00;;;25.10;45.90;;;;;;5005141;28;20656;-62
2023/04/19 12:51:26;;;;;;;2.97;2.63;;;25.10;43.90;;;;;;5006125;28;20258;-61
2023/04/19 12:53:53;;;;;;;2.23;1.80;;;25.00;44.50;;;;;;5007588;28;20218;-61
2023/04/19 12:56:20;;;;;;;3.03;1.70;;;24.80;45.40;;;;;;5007252;28;20530;-61
2023/04/19 12:58:47;;;;;;;3.87;1.60;;;24.80;45.30;;;;;;5005410;28;20303;-61